createdAt,value
2018-09-06T00:01:07.416Z,19.40
2018-09-06T00:03:35.563Z,19.40
2018-09-06T00:06:03.720Z,19.30
2018-09-06T00:08:31.861Z,19.30
2018-09-06T00:11:00.020Z,19.30
2018-09-06T00:13:28.156Z,19.30
2018-09-06T00:15:56.314Z,19.30
2018-09-06T00:18:24.464Z,19.30
2018-09-06T00:20:52.614Z,19.20
2018-09-06T00:23:20.755Z,19.10
2018-09-06T00:25:48.908Z,19.20
2018-09-06T00:28:17.051Z,19.10
2018-09-06T00:30:45.197Z,19.10
2018-09-06T00:33:13.366Z,19.10
2018-09-06T00:35:41.523Z,19.00
2018-09-06T00:38:09.668Z,19.10
2018-09-06T00:40:37.827Z,19.20
2018-09-06T00:43:06.064Z,19.20
2018-09-06T00:45:34.483Z,19.20
2018-09-06T00:48:02.643Z,19.30
2018-09-06T00:50:36.207Z,19.20
2018-09-06T00:53:04.354Z,19.30
2018-09-06T00:55:32.845Z,19.30
2018-09-06T00:58:01.042Z,19.30
2018-09-06T01:00:29.226Z,19.30
2018-09-06T01:02:57.412Z,19.30
2018-09-06T01:05:25.583Z,19.30
2018-09-06T01:07:53.766Z,19.30
2018-09-06T01:10:21.946Z,19.30
2018-09-06T01:12:50.124Z,19.40
2018-09-06T01:15:18.301Z,19.40
2018-09-06T01:17:46.491Z,19.30
2018-09-06T01:20:14.675Z,19.30
2018-09-06T01:22:42.856Z,19.30
2018-09-06T01:25:11.022Z,19.20
2018-09-06T01:27:39.210Z,19.30
2018-09-06T01:30:07.444Z,19.30
2018-09-06T01:32:35.644Z,19.30
2018-09-06T01:35:03.923Z,19.20
2018-09-06T01:37:32.093Z,19.20
2018-09-06T01:40:00.266Z,19.20
2018-09-06T01:42:28.561Z,19.10
2018-09-06T01:44:56.719Z,19.10
2018-09-06T01:47:24.910Z,19.10
2018-09-06T01:49:53.095Z,19.00
2018-09-06T01:52:21.278Z,19.00
2018-09-06T01:54:49.422Z,19.00
2018-09-06T01:57:17.566Z,19.00
2018-09-06T01:59:45.706Z,19.00
2018-09-06T02:02:13.864Z,19.00
2018-09-06T02:04:42.002Z,18.90
2018-09-06T02:07:10.160Z,18.80
2018-09-06T02:09:38.303Z,18.80
2018-09-06T02:12:06.462Z,18.70
2018-09-06T02:14:34.610Z,18.70
2018-09-06T02:17:02.769Z,18.70
2018-09-06T02:19:30.942Z,18.70
2018-09-06T02:21:59.095Z,18.70
2018-09-06T02:24:27.252Z,18.70
2018-09-06T02:26:55.391Z,18.70
2018-09-06T02:29:23.538Z,18.70
2018-09-06T02:31:51.685Z,18.70
2018-09-06T02:34:19.822Z,18.60
2018-09-06T02:36:47.970Z,18.50
2018-09-06T02:39:16.137Z,18.50
2018-09-06T02:41:44.308Z,18.50
2018-09-06T02:44:12.442Z,18.50
2018-09-06T02:46:40.586Z,18.50
2018-09-06T02:49:08.742Z,18.50
2018-09-06T02:51:36.879Z,18.50
2018-09-06T02:54:05.094Z,18.50
2018-09-06T02:56:33.263Z,18.50
2018-09-06T02:59:01.442Z,18.50
2018-09-06T03:01:29.605Z,18.50
2018-09-06T03:03:57.786Z,18.40
2018-09-06T03:06:25.949Z,18.40
2018-09-06T03:08:54.122Z,18.40
2018-09-06T03:11:25.277Z,18.40
2018-09-06T03:13:53.870Z,18.40
2018-09-06T03:16:22.242Z,18.40
2018-09-06T03:18:50.438Z,18.30
2018-09-06T03:21:18.791Z,18.30
2018-09-06T03:23:46.970Z,18.30
2018-09-06T03:26:16.003Z,18.30
2018-09-06T03:28:44.470Z,18.30
2018-09-06T03:31:13.157Z,18.30
2018-09-06T03:33:41.336Z,18.50
2018-09-06T03:36:09.510Z,18.60
2018-09-06T03:38:37.714Z,18.70
2018-09-06T03:41:05.914Z,18.70
2018-09-06T03:43:34.115Z,18.80
2018-09-06T03:46:02.299Z,18.80
2018-09-06T03:48:30.478Z,18.90
2018-09-06T03:50:58.650Z,18.90
2018-09-06T03:53:26.895Z,18.90
2018-09-06T03:55:56.055Z,18.90
2018-09-06T03:58:24.234Z,18.90
2018-09-06T04:00:52.413Z,18.90
2018-09-06T04:03:20.606Z,18.90
2018-09-06T04:05:48.778Z,18.90
2018-09-06T04:08:16.975Z,18.90
2018-09-06T04:10:45.154Z,18.80
2018-09-06T04:13:13.340Z,18.80
2018-09-06T04:15:41.510Z,18.80
2018-09-06T04:18:09.697Z,18.80
2018-09-06T04:20:37.875Z,18.80
2018-09-06T04:23:06.051Z,18.80
2018-09-06T04:25:34.222Z,18.80
2018-09-06T04:28:02.402Z,18.80
2018-09-06T04:30:30.577Z,18.80
2018-09-06T04:32:58.766Z,18.80
2018-09-06T04:35:26.966Z,18.90
2018-09-06T04:37:55.106Z,19.00
2018-09-06T04:40:23.316Z,19.00
2018-09-06T04:42:51.511Z,19.00
2018-09-06T04:45:19.689Z,19.00
2018-09-06T04:47:47.868Z,18.90
2018-09-06T04:50:16.054Z,18.90
2018-09-06T04:52:44.230Z,18.90
2018-09-06T04:55:12.486Z,18.90
2018-09-06T04:57:40.590Z,19.00
2018-09-06T05:00:08.774Z,19.00
2018-09-06T05:02:36.948Z,19.00
2018-09-06T05:05:05.497Z,19.00
2018-09-06T05:07:33.684Z,19.00
2018-09-06T05:10:01.859Z,19.00
2018-09-06T05:12:30.039Z,19.00
2018-09-06T05:14:58.219Z,19.00
2018-09-06T05:17:26.389Z,19.00
2018-09-06T05:19:54.582Z,19.00
2018-09-06T05:22:22.827Z,19.00
2018-09-06T05:24:51.019Z,19.00
2018-09-06T05:27:19.187Z,19.00
2018-09-06T05:29:47.370Z,19.00
2018-09-06T05:32:15.546Z,19.00
2018-09-06T05:34:43.742Z,18.90
2018-09-06T05:37:11.938Z,18.90
2018-09-06T05:39:40.114Z,18.90
2018-09-06T05:42:08.295Z,18.90
2018-09-06T05:44:36.486Z,19.00
2018-09-06T05:47:04.730Z,18.90
2018-09-06T05:49:32.903Z,19.00
2018-09-06T05:52:01.084Z,18.90
2018-09-06T05:54:29.282Z,18.90
2018-09-06T05:56:57.482Z,18.90
2018-09-06T05:59:25.658Z,18.90
2018-09-06T06:01:53.833Z,18.80
2018-09-06T06:04:22.015Z,18.80
2018-09-06T06:06:50.186Z,18.90
2018-09-06T06:09:18.374Z,18.80
2018-09-06T06:11:46.585Z,18.80
2018-09-06T06:14:14.734Z,18.80
2018-09-06T06:16:42.906Z,18.70
2018-09-06T06:19:11.110Z,18.80
2018-09-06T06:21:39.294Z,18.80
2018-09-06T06:24:07.734Z,18.80
2018-09-06T06:26:35.959Z,18.70
2018-09-06T06:29:04.395Z,18.70
2018-09-06T06:31:33.345Z,18.70
2018-09-06T06:34:01.569Z,18.70
2018-09-06T06:36:29.701Z,18.70
2018-09-06T06:38:57.882Z,18.60
2018-09-06T06:41:26.158Z,18.60
2018-09-06T06:43:54.336Z,18.60
2018-09-06T06:46:22.518Z,18.50
2018-09-06T06:48:50.718Z,18.50
2018-09-06T06:51:18.899Z,18.50
2018-09-06T06:53:47.090Z,18.50
2018-09-06T06:56:15.273Z,18.50
2018-09-06T06:58:43.512Z,18.50
2018-09-06T07:01:11.622Z,18.60
2018-09-06T07:03:39.794Z,18.60
2018-09-06T07:06:07.988Z,18.50
2018-09-06T07:08:36.318Z,18.50
2018-09-06T07:11:04.486Z,18.50
2018-09-06T07:13:32.649Z,18.50
2018-09-06T07:16:00.839Z,18.50
2018-09-06T07:18:29.222Z,18.50
2018-09-06T07:20:57.382Z,18.50
2018-09-06T07:23:25.553Z,18.50
2018-09-06T07:25:53.743Z,18.50
2018-09-06T07:28:21.909Z,18.40
2018-09-06T07:30:50.091Z,18.50
2018-09-06T07:33:18.275Z,18.50
2018-09-06T07:35:46.470Z,18.50
2018-09-06T07:38:14.639Z,18.50
2018-09-06T07:40:42.819Z,18.60
2018-09-06T07:43:11.003Z,18.60
2018-09-06T07:45:39.193Z,18.70
2018-09-06T07:48:07.374Z,18.70
2018-09-06T07:50:35.558Z,18.70
2018-09-06T07:53:03.738Z,18.60
2018-09-06T07:55:31.934Z,18.60
2018-09-06T07:58:00.114Z,18.60
2018-09-06T08:00:28.323Z,18.70
2018-09-06T08:02:56.494Z,18.60
2018-09-06T08:05:24.677Z,18.70
2018-09-06T08:07:52.854Z,18.60
2018-09-06T08:10:21.039Z,18.60
2018-09-06T08:12:49.230Z,18.60
2018-09-06T08:15:17.435Z,18.70
2018-09-06T08:17:45.618Z,18.70
2018-09-06T08:20:13.798Z,18.70
2018-09-06T08:22:42.006Z,18.70
2018-09-06T08:25:10.202Z,18.60
2018-09-06T08:27:38.391Z,18.60
2018-09-06T08:30:06.575Z,18.60
2018-09-06T08:32:35.698Z,18.60
2018-09-06T08:35:03.873Z,18.60
2018-09-06T08:37:32.068Z,18.50
2018-09-06T08:40:00.593Z,18.50
2018-09-06T08:42:29.020Z,18.50
2018-09-06T08:44:57.227Z,18.50
2018-09-06T08:47:25.433Z,18.50
2018-09-06T08:49:53.591Z,18.50
2018-09-06T08:52:21.867Z,18.50
2018-09-06T08:54:50.006Z,18.50
2018-09-06T08:57:18.174Z,18.50
2018-09-06T08:59:46.335Z,18.50
2018-09-06T09:02:14.814Z,18.50
2018-09-06T09:04:42.939Z,18.50
2018-09-06T09:07:11.034Z,18.50
2018-09-06T09:09:39.212Z,18.50
2018-09-06T09:12:07.366Z,18.50
2018-09-06T09:14:35.503Z,18.60
2018-09-06T09:17:03.662Z,18.60
2018-09-06T09:19:31.805Z,18.60
2018-09-06T09:22:00.037Z,18.70
2018-09-06T09:24:28.119Z,18.80
2018-09-06T09:26:56.275Z,18.80
2018-09-06T09:29:24.686Z,18.80
2018-09-06T09:31:52.837Z,18.80
2018-09-06T09:34:20.990Z,18.80
2018-09-06T09:36:49.201Z,18.70
2018-09-06T09:39:17.350Z,18.70
2018-09-06T09:41:45.518Z,18.70
2018-09-06T09:44:13.666Z,18.80
2018-09-06T09:49:09.273Z,18.80
2018-09-06T09:51:37.434Z,18.80
2018-09-06T09:54:05.589Z,18.80
2018-09-06T09:56:33.742Z,18.80
2018-09-06T09:59:01.922Z,18.90
2018-09-06T10:01:35.478Z,18.90
2018-09-06T10:04:08.816Z,19.00
2018-09-06T10:06:42.361Z,19.00
2018-09-06T10:09:15.974Z,19.00
2018-09-06T10:11:44.282Z,19.00
2018-09-06T10:14:12.638Z,18.90
2018-09-06T10:16:40.797Z,19.00
2018-09-06T10:19:08.990Z,19.00
2018-09-06T10:21:37.133Z,19.00
2018-09-06T10:24:05.310Z,19.00
2018-09-06T10:26:33.462Z,19.00
2018-09-06T10:29:01.639Z,19.00
2018-09-06T10:31:29.786Z,19.00
2018-09-06T10:33:57.953Z,19.10
2018-09-06T10:36:26.186Z,19.00
2018-09-06T10:38:54.350Z,18.90
2018-09-06T10:41:22.502Z,18.90
2018-09-06T10:43:50.658Z,18.90
2018-09-06T10:46:18.803Z,18.90
2018-09-06T10:48:46.954Z,18.90
2018-09-06T10:51:15.106Z,18.90
2018-09-06T10:53:43.418Z,19.00
2018-09-06T10:56:11.887Z,18.90
2018-09-06T10:58:40.082Z,18.90
2018-09-06T11:01:13.591Z,18.90
2018-09-06T11:03:41.742Z,19.00
2018-09-06T11:06:09.894Z,18.90
2018-09-06T11:08:38.113Z,18.80
2018-09-06T11:11:06.661Z,18.80
2018-09-06T11:13:34.810Z,18.80
2018-09-06T11:16:02.962Z,18.90
2018-09-06T11:18:31.134Z,18.90
2018-09-06T11:20:59.327Z,18.80
2018-09-06T11:23:27.462Z,18.80
2018-09-06T11:25:55.602Z,18.80
2018-09-06T11:28:24.010Z,18.80
2018-09-06T11:30:52.154Z,18.90
2018-09-06T11:33:20.381Z,18.80
2018-09-06T11:35:48.461Z,18.80
2018-09-06T11:38:16.614Z,18.80
2018-09-06T11:40:44.761Z,18.90
2018-09-06T11:43:12.907Z,18.90
2018-09-06T11:45:41.098Z,18.90
2018-09-06T11:48:15.813Z,18.90
2018-09-06T11:50:43.954Z,18.90
2018-09-06T11:53:12.118Z,18.90
2018-09-06T11:55:40.319Z,18.90
2018-09-06T11:58:08.495Z,18.90
2018-09-06T12:00:38.546Z,18.90
2018-09-06T12:03:06.899Z,18.90
2018-09-06T12:05:35.081Z,18.90
2018-09-06T12:08:03.250Z,19.00
2018-09-06T12:10:31.430Z,19.00
2018-09-06T12:12:59.630Z,19.00
2018-09-06T12:15:27.824Z,19.00
2018-09-06T12:17:55.991Z,19.00
2018-09-06T12:20:24.190Z,19.00
2018-09-06T12:22:52.363Z,19.00
2018-09-06T12:25:20.603Z,19.00
2018-09-06T12:27:48.738Z,19.00
2018-09-06T12:30:16.918Z,19.00
2018-09-06T12:32:45.226Z,19.10
2018-09-06T12:35:13.412Z,19.10
2018-09-06T12:37:41.586Z,19.10
2018-09-06T12:40:09.766Z,19.00
2018-09-06T12:42:37.934Z,19.00
2018-09-06T12:45:06.410Z,18.90
2018-09-06T12:47:34.598Z,19.00
2018-09-06T12:50:02.991Z,19.00
2018-09-06T12:52:31.165Z,19.00
2018-09-06T12:54:59.319Z,19.10
2018-09-06T12:57:27.467Z,19.10
2018-09-06T12:59:55.619Z,19.10
2018-09-06T13:02:23.765Z,19.10
2018-09-06T13:04:51.925Z,19.10
2018-09-06T13:07:20.101Z,19.20
2018-09-06T13:09:48.250Z,19.20
2018-09-06T13:12:16.416Z,19.10
2018-09-06T13:14:44.554Z,19.10
2018-09-06T13:17:12.694Z,19.10
2018-09-06T13:19:40.874Z,19.10
2018-09-06T13:22:09.019Z,19.20
2018-09-06T13:24:37.170Z,19.20
2018-09-06T13:27:05.314Z,19.20
2018-09-06T13:29:33.558Z,19.20
2018-09-06T13:32:02.430Z,19.20
2018-09-06T13:34:30.578Z,19.30
2018-09-06T13:36:58.736Z,19.30
2018-09-06T13:39:26.906Z,19.20
2018-09-06T13:41:55.046Z,19.20
2018-09-06T13:44:23.198Z,19.20
2018-09-06T13:46:51.334Z,19.20
2018-09-06T13:49:19.510Z,19.20
2018-09-06T13:51:47.681Z,19.20
2018-09-06T13:54:15.840Z,19.20
2018-09-06T13:56:44.019Z,19.30
2018-09-06T13:59:12.202Z,19.30
2018-09-06T14:01:40.359Z,19.40
2018-09-06T14:04:08.502Z,19.40
2018-09-06T14:06:36.662Z,19.40
2018-09-06T14:09:05.970Z,19.50
2018-09-06T14:11:34.154Z,19.60
2018-09-06T14:14:02.307Z,19.50
2018-09-06T14:16:30.473Z,19.50
2018-09-06T14:18:58.594Z,19.60
2018-09-06T14:21:26.751Z,19.60
2018-09-06T14:23:55.039Z,19.70
2018-09-06T14:26:23.141Z,19.80
2018-09-06T14:28:51.302Z,19.80
2018-09-06T14:31:19.718Z,19.80
2018-09-06T14:33:47.855Z,19.80
2018-09-06T14:36:16.010Z,19.80
2018-09-06T14:38:44.281Z,19.90
2018-09-06T14:41:12.326Z,19.80
2018-09-06T14:43:40.515Z,19.80
2018-09-06T14:46:08.665Z,19.80
2018-09-06T14:48:36.814Z,19.80
2018-09-06T14:51:05.038Z,19.80
2018-09-06T14:53:33.202Z,19.80
2018-09-06T14:56:01.378Z,19.80
2018-09-06T14:58:29.523Z,19.80
2018-09-06T15:00:57.674Z,19.90
2018-09-06T15:03:25.815Z,19.90
2018-09-06T15:05:53.968Z,19.90
2018-09-06T15:08:22.193Z,19.90
2018-09-06T15:10:50.342Z,20.00
2018-09-06T15:13:18.478Z,20.00
2018-09-06T15:15:46.641Z,20.00
2018-09-06T15:18:14.779Z,20.00
2018-09-06T15:20:42.925Z,20.00
2018-09-06T15:23:11.090Z,20.10
2018-09-06T15:25:39.250Z,20.10
2018-09-06T15:28:07.440Z,20.10
2018-09-06T15:30:35.608Z,20.10
2018-09-06T15:33:03.746Z,20.10
2018-09-06T15:35:31.907Z,20.20
2018-09-06T15:38:00.050Z,20.20
2018-09-06T15:40:28.207Z,20.20
2018-09-06T15:42:56.346Z,20.30
2018-09-06T15:45:24.587Z,20.40
2018-09-06T15:47:52.866Z,20.40
2018-09-06T15:50:21.050Z,20.30
2018-09-06T15:52:49.231Z,20.40
2018-09-06T15:55:17.382Z,20.30
2018-09-06T15:57:45.538Z,20.30
2018-09-06T16:00:13.731Z,20.30
2018-09-06T16:02:41.939Z,20.20
2018-09-06T16:05:10.259Z,20.20
2018-09-06T16:07:38.420Z,20.20
2018-09-06T16:10:06.576Z,20.20
2018-09-06T16:12:34.902Z,20.20
2018-09-06T16:15:03.069Z,20.30
2018-09-06T16:17:31.211Z,20.30
2018-09-06T16:19:59.439Z,20.30
2018-09-06T16:22:27.589Z,20.30
2018-09-06T16:24:55.738Z,20.30
2018-09-06T16:27:24.042Z,20.30
2018-09-06T16:29:52.186Z,20.30
2018-09-06T16:32:20.341Z,20.30
2018-09-06T16:34:48.486Z,20.20
2018-09-06T16:37:16.736Z,20.20
2018-09-06T16:39:44.833Z,20.20
2018-09-06T16:42:12.951Z,20.10
2018-09-06T16:44:41.098Z,20.10
2018-09-06T16:47:09.275Z,20.00
2018-09-06T16:49:37.418Z,20.00
2018-09-06T16:52:05.715Z,20.10
2018-09-06T16:54:33.904Z,20.10
2018-09-06T16:57:02.073Z,20.10
2018-09-06T16:59:30.215Z,20.10
2018-09-06T17:01:58.362Z,20.00
2018-09-06T17:04:26.522Z,20.00
2018-09-06T17:06:54.683Z,19.90
2018-09-06T17:09:22.878Z,19.90
2018-09-06T17:11:51.035Z,19.90
2018-09-06T17:14:19.194Z,19.90
2018-09-06T17:16:47.342Z,19.90
2018-09-06T17:19:15.491Z,19.80
2018-09-06T17:21:43.713Z,19.80
2018-09-06T17:24:11.850Z,19.70
2018-09-06T17:26:40.031Z,19.70
2018-09-06T17:29:08.177Z,19.70
2018-09-06T17:31:36.344Z,19.80
2018-09-06T17:34:04.490Z,19.80
2018-09-06T17:36:32.682Z,19.80
2018-09-06T17:39:00.816Z,19.80
2018-09-06T17:41:28.957Z,19.80
2018-09-06T17:43:57.123Z,19.80
2018-09-06T17:46:25.254Z,19.70
2018-09-06T17:48:53.426Z,19.70
2018-09-06T17:51:21.574Z,19.70
2018-09-06T17:53:49.736Z,19.60
2018-09-06T17:56:17.909Z,19.60
2018-09-06T17:58:46.098Z,19.60
2018-09-06T18:01:28.300Z,19.60
2018-09-06T18:03:56.417Z,19.60
2018-09-06T18:06:24.598Z,19.60
2018-09-06T18:08:52.782Z,19.60
2018-09-06T18:11:20.958Z,19.60
2018-09-06T18:13:49.182Z,19.50
2018-09-06T18:16:17.354Z,19.50
2018-09-06T18:18:45.557Z,19.40
2018-09-06T18:21:13.721Z,19.40
2018-09-06T18:23:41.937Z,19.40
2018-09-06T18:26:10.079Z,19.40
2018-09-06T18:28:38.263Z,19.30
2018-09-06T18:31:06.451Z,19.40
2018-09-06T18:33:34.626Z,19.30
2018-09-06T18:36:02.801Z,19.40
2018-09-06T18:38:30.986Z,19.30
2018-09-06T18:40:59.167Z,19.30
2018-09-06T18:43:27.385Z,19.30
2018-09-06T18:45:55.518Z,19.30
2018-09-06T18:48:23.742Z,19.30
2018-09-06T18:50:51.910Z,19.20
2018-09-06T18:53:20.102Z,19.20
2018-09-06T18:55:48.375Z,19.20
2018-09-06T18:58:16.554Z,19.20
2018-09-06T19:00:44.738Z,19.20
2018-09-06T19:03:12.927Z,19.20
2018-09-06T19:05:41.101Z,19.20
2018-09-06T19:08:09.538Z,19.10
2018-09-06T19:10:38.679Z,19.10
2018-09-06T19:13:07.030Z,19.00
2018-09-06T19:15:35.207Z,19.00
2018-09-06T19:18:03.421Z,18.90
2018-09-06T19:20:31.602Z,18.90
2018-09-06T19:22:59.846Z,18.80
2018-09-06T19:25:28.034Z,18.80
2018-09-06T19:27:56.392Z,18.80
2018-09-06T19:30:24.566Z,18.80
2018-09-06T19:32:53.051Z,18.80
2018-09-06T19:35:21.222Z,18.70
2018-09-06T19:37:49.381Z,18.70
2018-09-06T19:40:17.740Z,18.70
2018-09-06T19:42:45.909Z,18.60
2018-09-06T19:45:14.087Z,18.60
2018-09-06T19:47:42.270Z,18.60
2018-09-06T19:50:10.451Z,18.60
2018-09-06T19:52:38.642Z,18.60
2018-09-06T19:55:06.862Z,18.60
2018-09-06T19:57:35.251Z,18.50
2018-09-06T20:00:03.884Z,18.50
2018-09-06T20:02:31.998Z,18.50
2018-09-06T20:05:00.162Z,18.50
2018-09-06T20:07:28.330Z,18.50
2018-09-06T20:09:56.541Z,18.50
2018-09-06T20:12:24.698Z,18.40
2018-09-06T20:14:52.850Z,18.40
2018-09-06T20:17:20.988Z,18.40
2018-09-06T20:19:49.184Z,18.30
2018-09-06T20:22:17.335Z,18.30
2018-09-06T20:24:45.482Z,18.30
2018-09-06T20:27:13.651Z,18.30
2018-09-06T20:29:41.866Z,18.30
2018-09-06T20:32:09.997Z,18.30
2018-09-06T20:34:38.214Z,18.20
2018-09-06T20:37:06.366Z,18.30
2018-09-06T20:39:34.534Z,18.30
2018-09-06T20:42:02.766Z,18.30
2018-09-06T20:44:30.850Z,18.30
2018-09-06T20:46:58.982Z,18.30
2018-09-06T20:49:27.182Z,18.30
2018-09-06T20:51:55.323Z,18.30
2018-09-06T20:54:23.506Z,18.20
2018-09-06T20:56:51.682Z,18.20
2018-09-06T20:59:19.898Z,18.20
2018-09-06T21:01:48.032Z,18.20
2018-09-06T21:04:16.266Z,18.20
2018-09-06T21:06:44.474Z,18.20
2018-09-06T21:09:12.650Z,18.10
2018-09-06T21:11:40.812Z,18.10
2018-09-06T21:14:08.977Z,18.10
2018-09-06T21:16:37.167Z,18.10
2018-09-06T21:19:05.330Z,18.10
2018-09-06T21:21:33.525Z,18.20
2018-09-06T21:24:01.703Z,18.20
2018-09-06T21:26:29.898Z,18.10
2018-09-06T21:28:58.087Z,18.10
2018-09-06T21:31:26.271Z,18.20
2018-09-06T21:33:54.447Z,18.20
2018-09-06T21:36:22.614Z,18.20
2018-09-06T21:38:50.785Z,18.20
2018-09-06T21:41:19.006Z,18.20
2018-09-06T21:43:47.175Z,18.20
2018-09-06T21:46:15.358Z,18.10
2018-09-06T21:48:43.530Z,18.10
2018-09-06T21:51:11.780Z,18.20
2018-09-06T21:53:39.882Z,18.20
2018-09-06T21:56:08.041Z,18.20
2018-09-06T21:58:36.258Z,18.10
2018-09-06T22:01:04.406Z,18.10
2018-09-06T22:03:38.177Z,18.10
2018-09-06T22:06:06.354Z,18.10
2018-09-06T22:08:34.481Z,18.00
2018-09-06T22:11:02.671Z,18.10
2018-09-06T22:13:30.801Z,18.00
2018-09-06T22:15:59.066Z,18.10
2018-09-06T22:18:27.242Z,18.10
2018-09-06T22:20:55.402Z,18.20
2018-09-06T22:23:23.559Z,18.20
2018-09-06T22:25:51.712Z,18.20
2018-09-06T22:28:19.852Z,18.20
2018-09-06T22:30:48.006Z,18.20
2018-09-06T22:33:16.146Z,18.20
2018-09-06T22:35:44.298Z,18.20
2018-09-06T22:38:12.443Z,18.10
2018-09-06T22:40:40.611Z,18.10
2018-09-06T22:43:08.750Z,18.10
2018-09-06T22:45:36.898Z,18.10
2018-09-06T22:48:05.214Z,18.00
2018-09-06T22:50:33.358Z,18.10
2018-09-06T22:53:01.513Z,18.10
2018-09-06T22:55:29.702Z,18.00
2018-09-06T22:57:57.878Z,18.00
2018-09-06T23:00:29.813Z,18.00
2018-09-06T23:03:03.606Z,18.00
2018-09-06T23:05:32.425Z,18.00
2018-09-06T23:08:00.930Z,18.00
2018-09-06T23:10:29.281Z,17.90
2018-09-06T23:12:57.477Z,18.00
2018-09-06T23:15:25.650Z,18.00
2018-09-06T23:17:53.825Z,17.90
2018-09-06T23:20:22.012Z,17.90
2018-09-06T23:22:50.210Z,17.90
2018-09-06T23:25:18.386Z,17.90
2018-09-06T23:27:46.573Z,17.80
2018-09-06T23:30:14.746Z,17.80
2018-09-06T23:32:42.930Z,17.70
2018-09-06T23:35:11.099Z,17.70
2018-09-06T23:37:39.279Z,17.70
2018-09-06T23:40:07.446Z,17.70
2018-09-06T23:42:35.630Z,17.70
2018-09-06T23:45:03.809Z,17.70
2018-09-06T23:47:32.002Z,17.70
2018-09-06T23:50:00.178Z,17.60
2018-09-06T23:52:28.359Z,17.60
2018-09-06T23:54:56.514Z,17.60
2018-09-06T23:57:24.793Z,17.60
2018-09-06T23:59:52.930Z,17.60
